Time;durP1;ratioP1;P1;durP2;ratioP2;P2;SDS_P1;SDS_P2;PMS_P1;PMS_P2;Temp;Humidity;BMP_temperature;BMP_pressure;BME280_temperature;BME280_humidity;BME280_pressure;Samples;Min_cycle;Max_cycle;Signal;HPM_P1;HPM_P2
2024/01/19 00:02:11;;;;;;;13.52;3.00;;;-0.90;99.90;;;;;;5057728;28;20473;-73
2024/01/19 00:04:36;;;;;;;8.32;2.67;;;-0.90;99.90;;;;;;5057083;28;20040;-73
2024/01/19 00:07:02;;;;;;;9.18;2.72;;;-0.80;99.90;;;;;;5040827;28;20090;-73
2024/01/19 00:09:28;;;;;;;8.95;2.90;;;-0.70;99.90;;;;;;5040620;28;20052;-75
2024/01/19 00:11:54;;;;;;;10.05;2.83;;;-0.70;99.90;;;;;;5056710;28;20045;-73
2024/01/19 00:14:19;;;;;;;9.73;2.88;;;-0.80;99.90;;;;;;5057220;28;20036;-73
2024/01/19 00:16:45;;;;;;;11.15;2.78;;;-0.70;99.90;;;;;;5023963;28;20037;-73
2024/01/19 00:19:11;;;;;;;10.27;3.05;;;-0.80;99.90;;;;;;5023493;28;20093;-74
2024/01/19 00:21:43;;;;;;;10.93;3.40;;;-0.80;99.90;;;;;;5024006;28;20049;-73
2024/01/19 00:24:10;;;;;;;10.13;3.00;;;-0.90;99.90;;;;;;5040815;28;20460;-73
2024/01/19 00:26:36;;;;;;;9.35;3.05;;;-0.90;99.90;;;;;;5056851;28;20616;-74
2024/01/19 00:29:01;;;;;;;9.15;3.13;;;-1.00;99.90;;;;;;5023885;28;20052;-73
2024/01/19 00:31:27;;;;;;;10.63;3.22;;;-1.10;99.90;;;;;;5056975;28;20048;-73
2024/01/19 00:33:53;;;;;;;8.93;2.90;;;-1.10;99.90;;;;;;5056901;28;20047;-73
2024/01/19 00:36:18;;;;;;;12.80;3.20;;;-1.20;99.90;;;;;;5040223;28;20119;-73
2024/01/19 00:38:44;;;;;;;11.43;3.03;;;-1.10;99.90;;;;;;5023255;28;20055;-73
2024/01/19 00:41:10;;;;;;;8.63;2.90;;;-1.20;99.90;;;;;;5056649;28;20044;-75
2024/01/19 00:43:36;;;;;;;10.23;3.00;;;-1.20;99.90;;;;;;5040468;28;20036;-74
2024/01/19 00:46:03;;;;;;;8.35;2.92;;;-1.20;99.90;;;;;;5040039;28;20037;-74
2024/01/19 00:48:29;;;;;;;8.27;3.10;;;-1.20;99.90;;;;;;5040369;28;20388;-73
2024/01/19 00:50:55;;;;;;;10.43;3.15;;;-1.20;99.90;;;;;;5056664;28;20127;-69
2024/01/19 00:53:21;;;;;;;9.68;3.10;;;-1.30;99.90;;;;;;5056434;28;20094;-70
2024/01/19 00:55:47;;;;;;;10.05;3.28;;;-1.30;99.90;;;;;;5056422;28;20049;-70
2024/01/19 00:58:14;;;;;;;10.68;3.20;;;-1.30;99.90;;;;;;5039792;28;20033;-70
2024/01/19 01:00:39;;;;;;;11.32;3.30;;;-1.30;99.90;;;;;;5039476;28;20041;-70
2024/01/19 01:03:05;;;;;;;8.10;2.80;;;-1.30;99.90;;;;;;5039623;28;20032;-70
2024/01/19 01:05:31;;;;;;;8.10;2.85;;;-1.30;99.90;;;;;;5039555;28;20047;-70
2024/01/19 01:07:57;;;;;;;11.35;3.33;;;-1.30;99.90;;;;;;5056143;28;20037;-70
2024/01/19 01:10:22;;;;;;;8.70;2.60;;;-1.30;99.90;;;;;;5039556;28;20485;-70
2024/01/19 01:12:48;;;;;;;8.18;2.85;;;-1.30;99.90;;;;;;5056090;28;20036;-70
2024/01/19 01:15:14;;;;;;;10.57;3.05;;;-1.20;99.90;;;;;;5039218;28;20041;-70
2024/01/19 01:17:40;;;;;;;9.73;2.80;;;-1.20;99.90;;;;;;5040009;28;20043;-70
2024/01/19 01:20:07;;;;;;;8.02;2.90;;;-1.20;99.90;;;;;;5039703;28;20075;-70
2024/01/19 01:22:32;;;;;;;8.48;2.90;;;-1.10;99.90;;;;;;5039269;28;20044;-70
2024/01/19 01:24:58;;;;;;;8.88;2.85;;;-1.00;99.90;;;;;;5055674;28;20047;-70
2024/01/19 01:27:24;;;;;;;9.38;2.75;;;-1.00;99.90;;;;;;5039512;28;20036;-70
2024/01/19 01:29:50;;;;;;;10.57;2.97;;;-0.60;99.90;;;;;;5022402;28;20525;-70
2024/01/19 01:32:16;;;;;;;9.15;2.83;;;-0.90;99.90;;;;;;5055133;28;20036;-70
2024/01/19 01:34:41;;;;;;;9.65;3.00;;;-0.80;99.90;;;;;;5055499;28;20040;-70
2024/01/19 01:37:07;;;;;;;10.05;2.78;;;-0.80;99.90;;;;;;5022477;28;20406;-70
2024/01/19 01:39:33;;;;;;;10.88;2.83;;;-0.80;99.90;;;;;;5039209;28;20048;-70
2024/01/19 01:41:59;;;;;;;10.10;2.80;;;-0.70;99.90;;;;;;5039099;28;20072;-70
2024/01/19 01:44:25;;;;;;;8.27;2.85;;;-0.70;99.90;;;;;;5038566;28;20078;-70
2024/01/19 01:46:52;;;;;;;8.07;2.55;;;-0.70;99.90;;;;;;5055380;28;20473;-71
2024/01/19 01:49:18;;;;;;;8.23;2.72;;;-0.70;99.90;;;;;;5055220;28;20044;-70
2024/01/19 01:51:45;;;;;;;12.70;2.78;;;-0.70;99.90;;;;;;5038717;28;20523;-70
2024/01/19 01:54:12;;;;;;;10.55;2.75;;;-0.60;99.90;;;;;;5038365;28;20036;-69
2024/01/19 01:56:40;;;;;;;8.88;2.65;;;-0.70;99.90;;;;;;5038575;28;20040;-69
2024/01/19 01:59:07;;;;;;;8.35;2.90;;;-0.70;99.90;;;;;;5055418;28;20032;-68
2024/01/19 02:01:33;;;;;;;8.75;2.80;;;-0.70;99.90;;;;;;5069132;28;20040;-69
2024/01/19 02:03:59;;;;;;;7.93;3.30;;;-0.70;99.90;;;;;;5058742;28;20040;-70
2024/01/19 02:06:26;;;;;;;8.40;3.42;;;-0.70;99.90;;;;;;5042473;28;20097;-70
2024/01/19 02:08:52;;;;;;;11.13;3.70;;;-0.70;99.90;;;;;;5060537;28;20045;-70
2024/01/19 02:11:18;;;;;;;13.65;3.55;;;-0.60;99.90;;;;;;5058626;28;20043;-70
2024/01/19 02:13:44;;;;;;;12.20;3.50;;;-0.50;99.90;;;;;;5026140;28;20044;-70
2024/01/19 02:16:09;;;;;;;11.90;3.47;;;-0.40;99.90;;;;;;5041058;28;20520;-70
2024/01/19 02:18:35;;;;;;;8.77;2.90;;;-0.40;99.90;;;;;;5040513;28;20039;-69
2024/01/19 02:21:02;;;;;;;11.23;3.05;;;-0.40;99.90;;;;;;5039386;28;20044;-70
2024/01/19 02:23:34;;;;;;;10.07;2.58;;;-0.30;99.90;;;;;;5038872;28;20119;-70
2024/01/19 02:26:02;;;;;;;9.38;2.10;;;-0.20;99.90;;;;;;5054411;28;20056;-70
2024/01/19 02:28:28;;;;;;;8.32;2.30;;;-0.20;99.90;;;;;;5038754;28;20135;-70
2024/01/19 02:30:54;;;;;;;6.97;2.10;;;-0.20;99.90;;;;;;5054724;28;20131;-70
2024/01/19 02:33:19;;;;;;;6.32;2.03;;;-0.20;99.90;;;;;;5038210;28;20087;-70
2024/01/19 02:35:45;;;;;;;6.30;2.35;;;-0.20;99.90;;;;;;5054655;28;20040;-70
2024/01/19 02:38:11;;;;;;;9.32;3.00;;;-0.30;99.90;;;;;;5038116;28;20123;-70
2024/01/19 02:40:37;;;;;;;9.30;3.40;;;-0.30;99.90;;;;;;5054745;28;20109;-70
2024/01/19 02:43:02;;;;;;;9.98;3.45;;;-0.40;99.90;;;;;;5038454;28;20096;-69
2024/01/19 02:45:28;;;;;;;9.57;3.92;;;-0.40;99.90;;;;;;5038738;28;20078;-69
2024/01/19 02:47:54;;;;;;;9.52;3.95;;;-0.40;99.90;;;;;;5039232;28;20044;-70
2024/01/19 02:50:20;;;;;;;11.13;3.72;;;-0.50;99.90;;;;;;5039510;28;20068;-70
2024/01/19 02:52:45;;;;;;;10.07;4.38;;;-0.60;99.90;;;;;;5055292;28;20064;-70
2024/01/19 02:55:11;;;;;;;10.45;3.92;;;-0.70;99.90;;;;;;5038992;28;20037;-70
2024/01/19 02:57:37;;;;;;;9.68;4.30;;;-0.70;99.90;;;;;;5055139;28;20079;-71
2024/01/19 03:00:04;;;;;;;12.48;4.30;;;-0.80;99.90;;;;;;5055149;28;20036;-70
2024/01/19 03:02:30;;;;;;;12.07;4.30;;;-0.90;99.90;;;;;;5054985;28;20143;-70
2024/01/19 03:04:56;;;;;;;11.50;4.30;;;-1.00;99.90;;;;;;5037911;28;20071;-70
2024/01/19 03:07:22;;;;;;;9.32;4.63;;;-0.90;99.90;;;;;;5054655;28;20094;-70
2024/01/19 03:09:48;;;;;;;11.88;4.30;;;-0.90;99.90;;;;;;5021482;28;20040;-73
2024/01/19 03:12:14;;;;;;;12.35;4.60;;;-0.90;99.90;;;;;;5054531;28;20041;-73
2024/01/19 03:14:40;;;;;;;11.07;4.25;;;-0.90;99.90;;;;;;5021537;28;20036;-73
2024/01/19 03:17:05;;;;;;;14.32;4.38;;;-0.90;99.90;;;;;;5054357;28;20423;-73
2024/01/19 03:19:32;;;;;;;11.35;4.50;;;-0.80;99.90;;;;;;5053994;28;20416;-73
2024/01/19 03:21:57;;;;;;;10.07;4.07;;;-0.80;99.90;;;;;;5038085;28;20059;-73
2024/01/19 03:24:23;;;;;;;10.93;3.78;;;-0.70;99.90;;;;;;5021394;28;20036;-73
2024/01/19 03:26:49;;;;;;;10.20;3.70;;;-0.70;99.90;;;;;;5037561;28;20105;-73
2024/01/19 03:29:15;;;;;;;10.15;3.42;;;-0.70;99.90;;;;;;5054260;28;20131;-73
2024/01/19 03:31:41;;;;;;;9.40;3.60;;;-0.60;99.90;;;;;;5054392;28;20542;-73
2024/01/19 03:34:07;;;;;;;7.97;3.50;;;-0.60;99.90;;;;;;5037428;28;20082;-73
2024/01/19 03:36:33;;;;;;;10.73;3.60;;;-0.60;99.90;;;;;;5053857;28;20033;-74
2024/01/19 03:38:58;;;;;;;10.45;3.35;;;-0.50;99.90;;;;;;5037443;28;20033;-73
2024/01/19 03:41:24;;;;;;;8.18;3.17;;;-0.40;99.90;;;;;;5037564;28;20481;-73
2024/01/19 03:43:50;;;;;;;8.32;2.90;;;-0.50;99.90;;;;;;5037955;28;20041;-73
2024/01/19 03:46:16;;;;;;;9.77;3.10;;;-0.40;99.90;;;;;;5054441;28;20090;-72
2024/01/19 03:48:42;;;;;;;10.13;2.90;;;-0.40;99.90;;;;;;5054085;28;20048;-72
2024/01/19 03:51:08;;;;;;;9.80;2.70;;;-0.40;99.90;;;;;;5037556;28;20077;-72
2024/01/19 03:53:34;;;;;;;7.05;2.78;;;-0.40;99.90;;;;;;5037691;28;20087;-72
2024/01/19 03:56:00;;;;;;;9.10;2.45;;;-0.40;99.90;;;;;;5057592;28;20048;-72
2024/01/19 03:58:25;;;;;;;8.10;2.58;;;-0.40;99.90;;;;;;5057858;28;20033;-72
2024/01/19 04:00:51;;;;;;;8.38;2.47;;;-0.40;99.90;;;;;;5057218;28;20047;-72
2024/01/19 04:03:19;;;;;;;7.93;2.60;;;-0.40;99.90;;;;;;5057328;28;20044;-72
2024/01/19 04:05:46;;;;;;;9.90;2.40;;;-0.40;99.90;;;;;;5041316;28;20037;-73
2024/01/19 04:08:11;;;;;;;9.32;2.55;;;-0.30;99.90;;;;;;5040640;28;20087;-73
2024/01/19 04:10:37;;;;;;;8.35;2.10;;;-0.30;99.90;;;;;;5056832;28;20072;-73
2024/01/19 04:13:03;;;;;;;10.85;2.30;;;-0.30;99.90;;;;;;5040715;28;20072;-73
2024/01/19 04:15:29;;;;;;;11.38;2.40;;;-0.30;99.90;;;;;;5023827;28;20044;-73
2024/01/19 04:17:55;;;;;;;7.28;2.05;;;-0.30;99.90;;;;;;5057307;28;20119;-74
2024/01/19 04:20:21;;;;;;;7.38;2.08;;;-0.30;99.90;;;;;;5024083;28;20051;-73
2024/01/19 04:22:46;;;;;;;8.45;1.77;;;-0.20;99.90;;;;;;5023717;28;20040;-73
2024/01/19 04:25:12;;;;;;;6.45;1.90;;;-0.30;99.90;;;;;;5023759;28;20390;-73
2024/01/19 04:27:38;;;;;;;7.07;1.88;;;-0.30;99.90;;;;;;5040348;28;20137;-73
2024/01/19 04:30:04;;;;;;;9.00;1.90;;;-0.30;99.90;;;;;;5023507;28;20618;-73
2024/01/19 04:32:30;;;;;;;8.57;2.15;;;-0.30;99.90;;;;;;5040330;28;20481;-73
2024/01/19 04:34:56;;;;;;;8.35;2.53;;;-0.30;99.90;;;;;;5039666;28;20044;-73
2024/01/19 04:37:21;;;;;;;9.50;2.13;;;-0.40;99.90;;;;;;5056746;28;20561;-72
2024/01/19 04:39:47;;;;;;;10.57;2.40;;;-0.40;99.90;;;;;;5056881;28;20060;-73
2024/01/19 04:42:13;;;;;;;7.45;2.20;;;-0.40;99.90;;;;;;5056365;28;20044;-73
2024/01/19 04:44:39;;;;;;;8.98;2.20;;;-0.40;99.90;;;;;;5056715;28;20052;-73
2024/01/19 04:47:05;;;;;;;8.02;2.10;;;-0.50;99.90;;;;;;5056775;28;20036;-73
2024/01/19 04:49:30;;;;;;;7.95;2.20;;;-0.60;99.90;;;;;;5040319;28;20044;-72
2024/01/19 04:51:56;;;;;;;11.13;2.13;;;-0.70;99.90;;;;;;5039636;28;20052;-73
2024/01/19 04:54:22;;;;;;;6.90;1.80;;;-0.80;99.90;;;;;;5023537;28;20037;-72
2024/01/19 04:56:48;;;;;;;10.20;2.28;;;-0.90;99.90;;;;;;5056522;28;20044;-73
2024/01/19 04:59:13;;;;;;;8.07;1.88;;;-0.90;99.90;;;;;;5056424;28;20044;-73
2024/01/19 05:01:39;;;;;;;6.72;1.95;;;-1.00;99.90;;;;;;5056446;28;20051;-72
2024/01/19 05:04:05;;;;;;;5.47;1.85;;;-1.10;99.90;;;;;;5039585;28;20412;-73
2024/01/19 05:06:31;;;;;;;6.72;2.08;;;-1.20;99.90;;;;;;5055114;28;20500;-73
2024/01/19 05:08:57;;;;;;;9.18;1.90;;;-1.20;99.90;;;;;;5056521;28;20041;-72
2024/01/19 05:11:22;;;;;;;6.03;1.63;;;-1.30;99.90;;;;;;5039672;28;20044;-72
2024/01/19 05:13:48;;;;;;;6.57;1.88;;;-1.30;99.90;;;;;;5055868;28;20489;-73
2024/01/19 05:16:14;;;;;;;8.00;2.00;;;-1.40;99.90;;;;;;5055969;28;20118;-72
2024/01/19 05:18:40;;;;;;;6.55;1.80;;;-1.50;99.90;;;;;;5039533;28;20036;-72
2024/01/19 05:21:06;;;;;;;10.20;2.10;;;-1.50;99.90;;;;;;5039640;28;20044;-72
2024/01/19 05:23:32;;;;;;;8.85;1.80;;;-1.60;99.90;;;;;;5055812;28;20051;-73
2024/01/19 05:25:58;;;;;;;5.45;1.67;;;-1.60;99.90;;;;;;5039344;28;20153;-72
2024/01/19 05:28:24;;;;;;;6.00;1.70;;;-1.60;99.90;;;;;;5056109;28;20142;-73
2024/01/19 05:30:49;;;;;;;6.25;1.70;;;-1.60;99.90;;;;;;5055919;28;20048;-69
2024/01/19 05:33:15;;;;;;;5.60;1.75;;;-1.60;99.90;;;;;;5039089;28;20047;-69
2024/01/19 05:35:41;;;;;;;8.23;1.60;;;-1.60;99.90;;;;;;5038810;28;20049;-69
2024/01/19 05:38:07;;;;;;;5.80;1.63;;;-1.60;99.90;;;;;;5055449;28;20464;-69
2024/01/19 05:40:32;;;;;;;7.35;1.60;;;-1.60;99.90;;;;;;5039281;28;20068;-69
2024/01/19 05:42:58;;;;;;;7.07;1.67;;;-1.60;99.90;;;;;;5055349;28;20079;-68
2024/01/19 05:45:25;;;;;;;11.20;1.83;;;-1.60;99.90;;;;;;5038982;28;20040;-68
2024/01/19 05:47:50;;;;;;;8.13;1.70;;;-1.70;99.90;;;;;;5055384;28;20041;-68
2024/01/19 05:50:16;;;;;;;5.82;1.83;;;-1.80;99.90;;;;;;5038951;28;20033;-68
2024/01/19 05:52:42;;;;;;;8.00;2.00;;;-1.80;99.90;;;;;;5055225;28;20037;-68
2024/01/19 05:55:08;;;;;;;5.95;1.90;;;-1.80;99.90;;;;;;5055494;28;20071;-68
2024/01/19 05:57:34;;;;;;;9.60;2.40;;;-1.90;99.90;;;;;;5055537;28;20040;-68
2024/01/19 06:00:00;;;;;;;8.90;2.13;;;-1.80;99.90;;;;;;5054876;28;20047;-69
2024/01/19 06:02:26;;;;;;;7.35;2.20;;;-1.90;99.90;;;;;;5055453;28;20048;-69
2024/01/19 06:04:52;;;;;;;8.10;2.42;;;-1.80;99.90;;;;;;5055456;28;20166;-68
2024/01/19 06:07:18;;;;;;;9.85;2.53;;;-1.90;99.90;;;;;;5055169;28;20565;-68
2024/01/19 06:09:44;;;;;;;8.45;2.85;;;-1.80;99.90;;;;;;5038502;28;20123;-69
2024/01/19 06:12:10;;;;;;;12.25;3.25;;;-1.80;99.90;;;;;;5038473;28;20511;-69
2024/01/19 06:14:36;;;;;;;10.43;3.50;;;-1.80;99.90;;;;;;5038494;28;20477;-68
2024/01/19 06:17:03;;;;;;;11.43;3.42;;;-1.80;99.90;;;;;;5038300;28;20123;-69
2024/01/19 06:19:28;;;;;;;8.07;2.92;;;-1.80;99.90;;;;;;5021823;28;20044;-69
2024/01/19 06:21:54;;;;;;;9.98;3.55;;;-1.70;99.90;;;;;;5037767;28;20044;-69
2024/01/19 06:24:20;;;;;;;10.95;3.25;;;-1.70;99.90;;;;;;5038301;28;20036;-69
2024/01/19 06:26:47;;;;;;;10.07;3.50;;;-1.70;99.90;;;;;;5052765;28;20052;-69
2024/01/19 06:29:13;;;;;;;12.70;3.53;;;-1.50;99.90;;;;;;5058147;28;20044;-69
2024/01/19 06:31:46;;;;;;;10.23;3.83;;;-1.70;99.90;;;;;;5058230;28;20119;-69
2024/01/19 06:34:12;;;;;;;9.25;3.13;;;-1.70;99.90;;;;;;5075164;28;20500;-69
2024/01/19 06:36:38;;;;;;;9.63;3.60;;;-1.70;99.90;;;;;;5075097;28;20123;-69
2024/01/19 06:39:07;;;;;;;11.98;3.72;;;-1.80;99.90;;;;;;5041558;28;20124;-69
2024/01/19 06:41:33;;;;;;;14.57;3.72;;;-1.80;99.90;;;;;;5075058;28;20044;-73
2024/01/19 06:43:59;;;;;;;10.68;3.45;;;-1.80;99.90;;;;;;5074854;28;20040;-73
2024/01/19 06:46:24;;;;;;;11.75;3.53;;;-1.90;99.90;;;;;;5058493;28;20510;-73
2024/01/19 06:48:50;;;;;;;10.27;3.60;;;-1.90;99.90;;;;;;5058165;28;20052;-75
2024/01/19 06:51:16;;;;;;;10.43;3.72;;;-1.90;99.90;;;;;;5074644;28;20048;-73
2024/01/19 06:53:42;;;;;;;9.82;3.25;;;-1.90;99.90;;;;;;5042259;28;20039;-74
2024/01/19 06:56:08;;;;;;;12.85;3.50;;;-1.80;99.90;;;;;;5074993;28;20032;-73
2024/01/19 06:58:34;;;;;;;12.27;3.30;;;-1.70;99.90;;;;;;5041343;28;20032;-74
2024/01/19 07:00:59;;;;;;;11.73;2.88;;;-1.60;99.90;;;;;;5058010;28;20040;-75
2024/01/19 07:03:25;;;;;;;12.02;2.65;;;-1.50;99.90;;;;;;5025689;28;20036;-73
2024/01/19 07:05:51;;;;;;;9.95;3.33;;;-1.40;99.90;;;;;;5041442;28;20040;-74
2024/01/19 07:08:17;;;;;;;10.52;2.80;;;-1.20;99.90;;;;;;5057998;28;20044;-74
2024/01/19 07:10:42;;;;;;;9.18;2.35;;;-1.10;99.90;;;;;;5041331;28;20565;-73
2024/01/19 07:13:08;;;;;;;14.30;3.88;;;-1.00;99.90;;;;;;5058307;28;20028;-73
2024/01/19 07:15:34;;;;;;;11.07;3.13;;;-0.90;99.90;;;;;;5074909;28;20036;-75
2024/01/19 07:18:00;;;;;;;10.65;2.53;;;-0.80;99.90;;;;;;5041703;28;20034;-73
2024/01/19 07:20:26;;;;;;;12.55;3.67;;;-0.70;99.90;;;;;;5058015;28;20047;-74
2024/01/19 07:22:55;;;;;;;12.15;3.10;;;-0.70;99.90;;;;;;5041147;28;20040;-74
2024/01/19 07:25:21;;;;;;;9.18;2.58;;;-0.70;99.90;;;;;;5074238;28;20052;-74
2024/01/19 07:27:47;;;;;;;10.23;2.55;;;-0.70;99.90;;;;;;5074312;28;20393;-74
2024/01/19 07:30:12;;;;;;;9.88;3.33;;;-0.70;99.90;;;;;;5027193;28;20044;-74
2024/01/19 07:32:38;;;;;;;15.85;4.55;;;-0.70;99.90;;;;;;5077983;28;20040;-73
2024/01/19 07:35:04;;;;;;;15.40;5.15;;;-0.80;99.90;;;;;;5061232;28;20031;-74
2024/01/19 07:37:30;;;;;;;13.15;3.45;;;-0.80;99.90;;;;;;5061513;28;20079;-74
2024/01/19 07:39:55;;;;;;;8.55;2.33;;;-0.80;99.90;;;;;;5061335;28;20040;-74
2024/01/19 07:42:21;;;;;;;12.63;2.50;;;-0.90;99.90;;;;;;5061503;28;20400;-74
2024/01/19 07:44:47;;;;;;;9.07;2.08;;;-0.90;99.90;;;;;;5078160;28;20067;-73
2024/01/19 07:47:13;;;;;;;10.90;2.03;;;-0.90;99.90;;;;;;5044900;28;20047;-73
2024/01/19 07:49:38;;;;;;;9.93;1.75;;;-1.00;99.90;;;;;;5044503;28;20047;-69
2024/01/19 07:52:05;;;;;;;11.73;1.83;;;-1.00;99.90;;;;;;5077733;28;20477;-69
2024/01/19 07:54:31;;;;;;;8.52;1.80;;;-1.00;99.90;;;;;;5077912;28;20241;-69
2024/01/19 07:56:56;;;;;;;11.82;1.90;;;-1.00;99.90;;;;;;5061164;28;20036;-69
2024/01/19 07:59:22;;;;;;;13.25;2.00;;;-1.10;99.90;;;;;;5077408;28;20127;-69
2024/01/19 08:01:48;;;;;;;8.80;1.70;;;-1.10;99.90;;;;;;5061118;28;20072;-69
2024/01/19 08:04:13;;;;;;;10.15;2.08;;;-1.10;99.90;;;;;;5077125;28;20040;-68
2024/01/19 08:06:39;;;;;;;12.30;1.90;;;-1.10;99.90;;;;;;5077369;28;20043;-70
2024/01/19 08:09:06;;;;;;;9.65;1.73;;;-1.10;99.90;;;;;;5060671;28;20036;-69
2024/01/19 08:11:32;;;;;;;9.90;1.80;;;-1.00;99.90;;;;;;5060880;28;20052;-69
2024/01/19 08:13:58;;;;;;;11.23;1.75;;;-0.90;99.90;;;;;;5077542;28;20043;-69
2024/01/19 08:16:24;;;;;;;9.02;1.83;;;-0.90;99.90;;;;;;5060522;28;20036;-69
2024/01/19 08:18:49;;;;;;;10.45;1.73;;;-0.80;99.90;;;;;;5077245;28;20555;-69
2024/01/19 08:21:16;;;;;;;8.88;1.83;;;-0.60;99.90;;;;;;5077165;28;20499;-69
2024/01/19 08:23:42;;;;;;;10.73;2.15;;;-0.50;99.90;;;;;;5077069;28;20044;-69
2024/01/19 08:26:08;;;;;;;8.60;1.85;;;-0.40;99.90;;;;;;5076912;28;20068;-68
2024/01/19 08:28:34;;;;;;;9.00;2.03;;;-0.30;99.90;;;;;;5077077;28;20086;-69
2024/01/19 08:31:00;;;;;;;11.60;2.80;;;-0.10;99.90;;;;;;5060513;28;20488;-69
2024/01/19 08:33:25;;;;;;;6.50;2.05;;;0.00;99.90;;;;;;5043839;28;20032;-69
2024/01/19 08:35:51;;;;;;;7.85;1.92;;;0.20;99.90;;;;;;5060273;28;20040;-70
2024/01/19 08:38:17;;;;;;;7.10;2.40;;;0.30;99.90;;;;;;5076927;28;20484;-69
2024/01/19 08:40:43;;;;;;;8.60;2.08;;;0.40;99.90;;;;;;5076719;28;20621;-69
2024/01/19 08:43:09;;;;;;;7.43;2.00;;;0.50;99.90;;;;;;5060436;28;20051;-69
2024/01/19 08:45:35;;;;;;;7.32;1.88;;;0.60;99.90;;;;;;5077113;28;20052;-69
2024/01/19 08:48:02;;;;;;;8.18;1.88;;;0.50;99.90;;;;;;5076858;28;20040;-69
2024/01/19 08:50:28;;;;;;;9.05;2.00;;;0.50;99.90;;;;;;5060233;28;20040;-69
2024/01/19 08:52:54;;;;;;;6.47;1.90;;;0.50;99.90;;;;;;5059841;28;20097;-69
2024/01/19 08:55:20;;;;;;;7.72;1.73;;;0.40;99.90;;;;;;5076508;28;20485;-69
2024/01/19 08:57:46;;;;;;;6.45;1.70;;;0.40;99.90;;;;;;5075865;28;20115;-69
2024/01/19 09:00:12;;;;;;;8.05;1.90;;;0.50;99.90;;;;;;5083380;28;20059;-73
2024/01/19 09:02:38;;;;;;;9.05;1.73;;;0.50;99.90;;;;;;5092815;28;20036;-72
2024/01/19 09:05:04;;;;;;;8.57;2.10;;;0.60;99.90;;;;;;5072389;28;20051;-73
2024/01/19 09:07:30;;;;;;;8.98;1.92;;;0.70;99.90;;;;;;5076736;28;20036;-74
2024/01/19 09:09:56;;;;;;;6.63;1.92;;;0.90;99.90;;;;;;5080394;28;20054;-75
2024/01/19 09:12:22;;;;;;;8.57;1.67;;;1.10;99.90;;;;;;5063570;28;20050;-78
2024/01/19 09:14:47;;;;;;;7.72;1.80;;;1.20;99.90;;;;;;5064337;28;20075;-73
2024/01/19 09:17:13;;;;;;;7.88;1.90;;;1.60;99.90;;;;;;5080669;28;20054;-76
2024/01/19 09:19:39;;;;;;;8.23;1.80;;;1.30;99.90;;;;;;5080936;28;20032;-76
2024/01/19 09:22:04;;;;;;;6.65;1.77;;;1.30;99.90;;;;;;5078884;28;20047;-78
2024/01/19 09:24:30;;;;;;;7.47;1.77;;;1.40;99.90;;;;;;5077491;28;20127;-74
2024/01/19 09:26:56;;;;;;;7.13;1.90;;;1.50;99.90;;;;;;5076837;28;20138;-74
2024/01/19 09:29:22;;;;;;;8.38;1.70;;;1.50;99.90;;;;;;5060167;28;20055;-74
2024/01/19 09:31:48;;;;;;;7.10;1.80;;;1.50;99.90;;;;;;5076838;28;20048;-73
2024/01/19 09:34:14;;;;;;;8.95;2.08;;;1.60;99.90;;;;;;5076000;28;20119;-73
2024/01/19 09:36:40;;;;;;;5.95;1.60;;;1.70;99.90;;;;;;5059493;28;20032;-73
2024/01/19 09:39:07;;;;;;;7.03;1.90;;;1.90;99.90;;;;;;5075864;28;20062;-73
2024/01/19 09:41:59;;;;;;;8.10;1.80;;;1.80;99.90;;;;;;5075963;28;20040;-73
2024/01/19 09:44:34;;;;;;;10.38;2.05;;;1.90;99.90;;;;;;5077214;28;20079;-74
2024/01/19 09:47:21;;;;;;;8.70;2.00;;;1.90;99.90;;;;;;5076981;28;20036;-73
2024/01/19 09:50:02;;;;;;;5.90;1.67;;;2.00;99.90;;;;;;5076664;28;20069;-73
2024/01/19 09:52:42;;;;;;;8.43;1.92;;;2.10;99.90;;;;;;5076089;28;20047;-73
2024/01/19 09:55:11;;;;;;;8.77;2.00;;;2.20;99.90;;;;;;5059730;28;20036;-73
2024/01/19 09:57:47;;;;;;;9.13;2.10;;;2.20;99.90;;;;;;5075818;28;20131;-74
2024/01/19 10:00:15;;;;;;;7.93;1.83;;;2.30;99.90;;;;;;5075611;28;20040;-73
2024/01/19 10:02:45;;;;;;;9.57;2.03;;;2.30;99.90;;;;;;5091035;28;20031;-74
2024/01/19 10:05:15;;;;;;;9.60;2.00;;;2.40;99.90;;;;;;5080239;28;20130;-74
2024/01/19 10:07:46;;;;;;;7.57;2.30;;;2.50;99.90;;;;;;5063054;28;20054;-74
2024/01/19 10:10:12;;;;;;;9.20;1.98;;;2.60;99.90;;;;;;5065785;28;20153;-69
2024/01/19 10:12:42;;;;;;;10.15;2.00;;;2.60;99.90;;;;;;5038329;28;20048;-69
2024/01/19 10:15:13;;;;;;;8.63;2.03;;;2.70;99.90;;;;;;5054884;28;20048;-69
2024/01/19 10:17:44;;;;;;;8.05;2.15;;;2.80;99.90;;;;;;5054866;28;20045;-69
2024/01/19 10:20:12;;;;;;;8.52;2.30;;;2.90;99.90;;;;;;5054824;28;20149;-69
2024/01/19 10:22:39;;;;;;;8.38;2.20;;;2.90;99.90;;;;;;5038588;28;20040;-70
2024/01/19 10:25:08;;;;;;;9.80;2.50;;;3.10;99.90;;;;;;5021440;28;20392;-73
2024/01/19 10:27:47;;;;;;;9.15;2.30;;;3.10;99.90;;;;;;5054970;28;20045;-73
2024/01/19 10:30:17;;;;;;;9.65;2.25;;;3.20;99.90;;;;;;5055009;28;20575;-72
2024/01/19 10:32:45;;;;;;;9.05;2.30;;;3.20;99.90;;;;;;5054620;28;20127;-72
2024/01/19 10:35:13;;;;;;;6.82;2.00;;;3.30;99.90;;;;;;5054115;28;20054;-72
2024/01/19 10:37:40;;;;;;;7.53;2.20;;;3.30;99.90;;;;;;5054619;28;20044;-72
2024/01/19 10:40:28;;;;;;;10.57;2.20;;;3.30;99.90;;;;;;5037890;28;20075;-72
2024/01/19 10:42:56;;;;;;;9.00;2.20;;;3.40;99.90;;;;;;5054480;28;20090;-73
2024/01/19 10:45:24;;;;;;;10.50;2.50;;;3.40;99.90;;;;;;5054259;28;20066;-72
2024/01/19 10:47:56;;;;;;;11.27;2.40;;;3.40;99.90;;;;;;5038318;28;20042;-72
2024/01/19 10:50:25;;;;;;;8.07;2.40;;;3.50;99.90;;;;;;5021234;28;20044;-72
2024/01/19 10:52:52;;;;;;;11.27;2.58;;;3.40;99.90;;;;;;5054150;28;20396;-72
2024/01/19 10:55:19;;;;;;;10.13;2.50;;;3.40;99.90;;;;;;5054689;28;20489;-73
2024/01/19 10:57:48;;;;;;;8.32;2.42;;;3.40;99.90;;;;;;5038087;28;20032;-72
2024/01/19 11:00:22;;;;;;;9.75;2.88;;;3.40;99.90;;;;;;5072696;28;20109;-72
2024/01/19 11:02:52;;;;;;;8.43;2.58;;;3.40;99.90;;;;;;5074954;28;20124;-72
2024/01/19 11:05:19;;;;;;;9.88;2.80;;;3.40;99.90;;;;;;5078665;28;20036;-73
2024/01/19 11:07:52;;;;;;;8.68;2.63;;;3.30;99.90;;;;;;5061867;28;20112;-72
2024/01/19 11:10:22;;;;;;;9.05;2.80;;;3.40;99.90;;;;;;5078647;28;20075;-72
2024/01/19 11:12:56;;;;;;;13.65;3.03;;;3.40;99.90;;;;;;5078337;28;20036;-73
2024/01/19 11:15:48;;;;;;;8.68;2.65;;;3.40;99.90;;;;;;5094845;28;20106;-73
2024/01/19 11:18:15;;;;;;;10.83;2.87;;;3.40;99.90;;;;;;5045242;28;20035;-73
2024/01/19 11:20:41;;;;;;;11.43;2.92;;;3.40;99.90;;;;;;5078676;28;20626;-75
2024/01/19 11:23:07;;;;;;;8.93;2.40;;;3.40;99.90;;;;;;5078549;28;20046;-75
2024/01/19 11:25:54;;;;;;;7.13;2.60;;;3.30;99.90;;;;;;5078037;28;20059;-75
2024/01/19 11:28:39;;;;;;;11.43;2.72;;;3.30;99.90;;;;;;5078395;28;20055;-75
2024/01/19 11:31:22;;;;;;;9.57;2.60;;;3.30;99.90;;;;;;5078095;28;20047;-75
2024/01/19 11:33:49;;;;;;;15.80;3.17;;;3.30;99.90;;;;;;5094993;28;20048;-75
2024/01/19 11:36:39;;;;;;;11.50;2.95;;;3.30;99.90;;;;;;5061411;28;20032;-77
2024/01/19 11:39:14;;;;;;;9.48;2.45;;;3.30;99.90;;;;;;5078385;28;20508;-77
2024/01/19 11:41:41;;;;;;;12.80;2.80;;;3.30;99.90;;;;;;5094793;28;20484;-76
2024/01/19 11:44:08;;;;;;;8.43;2.50;;;3.30;99.90;;;;;;5077948;28;20071;-76
2024/01/19 11:47:00;;;;;;;8.32;2.70;;;3.30;99.90;;;;;;5077856;28;20051;-75
2024/01/19 11:49:38;;;;;;;12.43;2.90;;;3.40;99.90;;;;;;5073883;28;20056;-75
2024/01/19 11:52:19;;;;;;;11.95;2.95;;;3.40;99.90;;;;;;5077677;28;20048;-76
2024/01/19 11:54:45;;;;;;;9.20;2.63;;;3.40;99.90;;;;;;5077020;28;20040;-76
2024/01/19 11:57:26;;;;;;;9.52;2.47;;;3.40;99.90;;;;;;5060912;28;20043;-75
2024/01/19 11:59:56;;;;;;;11.57;2.40;;;3.40;99.90;;;;;;5077864;28;20040;-76
2024/01/19 12:02:31;;;;;;;9.32;2.75;;;3.30;99.90;;;;;;5061473;28;20059;-75
2024/01/19 12:05:02;;;;;;;9.93;2.78;;;3.40;99.90;;;;;;5077714;28;20122;-76
2024/01/19 12:07:28;;;;;;;9.35;2.50;;;3.40;99.90;;;;;;5077406;28;20072;-76
2024/01/19 12:10:10;;;;;;;8.77;2.60;;;3.40;99.90;;;;;;5060766;28;20072;-76
2024/01/19 12:12:37;;;;;;;9.23;2.72;;;3.40;99.90;;;;;;5077121;28;20040;-76
2024/01/19 12:15:05;;;;;;;10.77;2.60;;;3.30;99.90;;;;;;5076538;28;20042;-76
2024/01/19 12:17:30;;;;;;;10.07;2.55;;;3.30;99.90;;;;;;5077337;28;20046;-76
2024/01/19 12:19:57;;;;;;;8.98;2.60;;;3.40;99.90;;;;;;5077216;28;20123;-76
2024/01/19 12:22:23;;;;;;;12.35;2.60;;;3.40;99.90;;;;;;5077372;28;20036;-76
2024/01/19 12:24:49;;;;;;;9.52;2.53;;;3.40;99.90;;;;;;5060731;28;20080;-76
2024/01/19 12:27:18;;;;;;;10.50;2.38;;;3.40;99.90;;;;;;5076781;28;20083;-76
2024/01/19 12:29:44;;;;;;;9.73;2.28;;;3.40;99.90;;;;;;5060274;28;20442;-71
2024/01/19 12:32:16;;;;;;;12.80;2.70;;;3.40;99.90;;;;;;5060387;28;20034;-71
2024/01/19 12:34:41;;;;;;;9.48;1.70;;;3.50;99.90;;;;;;5019694;28;20097;-71
2024/01/19 12:37:07;;;;;;;12.98;2.47;;;3.50;99.90;;;;;;5059942;28;20488;-71
2024/01/19 12:39:33;;;;;;;12.95;2.72;;;3.50;99.90;;;;;;5077089;28;20523;-71
2024/01/19 12:42:05;;;;;;;8.93;2.20;;;3.50;99.90;;;;;;5076594;28;20046;-71
2024/01/19 12:44:31;;;;;;;8.48;1.65;;;3.50;99.90;;;;;;5076949;28;20079;-72
2024/01/19 12:47:01;;;;;;;11.63;2.42;;;3.60;99.90;;;;;;5076768;28;20051;-72